Time;durP1;ratioP1;P1;durP2;ratioP2;P2;SDS_P1;SDS_P2;PMS_P1;PMS_P2;Temp;Humidity;BMP_temperature;BMP_pressure;BME280_temperature;BME280_humidity;BME280_pressure;Samples;Min_cycle;Max_cycle;Signal;HPM_P1;HPM_P2
2023/07/28 00:01:40;;;;;;;;;;;20.60;91.60;;;;;;4170116;28;20443;-49
2023/07/28 00:04:21;;;;;;;;;;;20.60;91.60;;;;;;4171447;28;19932;-50
2023/07/28 00:07:01;;;;;;;;;;;20.60;91.60;;;;;;4161110;28;19956;-47
2023/07/28 00:09:42;;;;;;;;;;;20.60;91.70;;;;;;4173125;28;20399;-51
2023/07/28 00:12:23;;;;;;;;;;;20.60;91.70;;;;;;4172634;28;19966;-46
2023/07/28 00:15:06;;;;;;;;;;;20.60;91.70;;;;;;4155911;28;19932;-48
2023/07/28 00:17:46;;;;;;;;;;;20.60;91.80;;;;;;4155599;28;20014;-51
2023/07/28 00:20:27;;;;;;;;;;;20.60;91.80;;;;;;4156292;28;19979;-46
2023/07/28 00:23:08;;;;;;;;;;;20.60;91.80;;;;;;4158364;28;19932;-45
2023/07/28 00:25:49;;;;;;;;;;;20.60;91.80;;;;;;4171974;28;19936;-48
2023/07/28 00:28:30;;;;;;;;;;;20.60;91.80;;;;;;4155886;28;19967;-45
2023/07/28 00:31:12;;;;;;;;;;;20.60;91.80;;;;;;4143136;28;19936;-48
2023/07/28 00:33:53;;;;;;;;;;;20.60;91.80;;;;;;4151264;28;19932;-49
2023/07/28 00:36:33;;;;;;;;;;;20.60;91.90;;;;;;4172072;28;19936;-48
2023/07/28 00:39:14;;;;;;;;;;;20.60;91.90;;;;;;4159364;28;19931;-50
2023/07/28 00:41:55;;;;;;;;;;;20.60;91.90;;;;;;4171486;28;19932;-47
2023/07/28 00:44:36;;;;;;;;;;;20.60;91.90;;;;;;4187855;28;19932;-47
2023/07/28 00:47:18;;;;;;;;;;;20.60;91.90;;;;;;4171308;28;19932;-52
2023/07/28 00:49:59;;;;;;;;;;;20.60;91.90;;;;;;4188042;28;20272;-51
2023/07/28 00:52:40;;;;;;;;;;;20.60;91.90;;;;;;4160180;28;20410;-51
2023/07/28 00:55:20;;;;;;;;;;;20.60;91.90;;;;;;4171180;28;19974;-51
2023/07/28 00:58:01;;;;;;;;;;;20.60;91.80;;;;;;4170046;28;20013;-52
2023/07/28 01:00:41;;;;;;;;;;;20.60;91.80;;;;;;4169256;28;19932;-52
2023/07/28 01:03:24;;;;;;;;;;;20.60;91.80;;;;;;4187956;28;20394;-51
2023/07/28 01:06:10;;;;;;;;;;;20.60;91.90;;;;;;4177937;28;19932;-50
2023/07/28 01:08:56;;;;;;;;;;;20.60;91.90;;;;;;4168771;28;19935;-46
2023/07/28 01:11:37;;;;;;;;;;;20.60;91.90;;;;;;4168610;28;20059;-49
2023/07/28 01:14:18;;;;;;;;;;;20.60;91.90;;;;;;4171480;28;19982;-48
2023/07/28 01:16:59;;;;;;;;;;;20.60;91.80;;;;;;4153725;28;19932;-50
2023/07/28 01:19:41;;;;;;;;;;;20.60;91.90;;;;;;4166953;28;19932;-51
2023/07/28 01:22:43;;;;;;;;;;;20.60;91.90;;;;;;4171292;28;19936;-49
2023/07/28 01:25:29;;;;;;;;;;;20.60;91.90;;;;;;4157407;28;20021;-48
2023/07/28 01:28:13;;;;;;;;;;;20.60;91.90;;;;;;4158728;28;19931;-46
2023/07/28 01:30:54;;;;;;;;;;;20.60;91.90;;;;;;4170655;28;19931;-49
2023/07/28 01:33:35;;;;;;;;;;;20.60;92.30;;;;;;4170590;28;20009;-50
2023/07/28 01:36:15;;;;;;;;;;;20.60;91.90;;;;;;4166565;28;20047;-48
2023/07/28 01:38:57;;;;;;;;;;;20.60;91.90;;;;;;4155407;28;19941;-50
2023/07/28 01:41:39;;;;;;;;;;;20.60;91.90;;;;;;4187288;28;19935;-52
2023/07/28 01:44:21;;;;;;;;;;;20.60;92.00;;;;;;4175496;28;20283;-47
2023/07/28 01:47:02;;;;;;;;;;;20.60;92.00;;;;;;4161305;28;20387;-49
2023/07/28 01:49:42;;;;;;;;;;;20.60;92.00;;;;;;4144431;28;19936;-46
2023/07/28 01:52:23;;;;;;;;;;;20.60;92.00;;;;;;4175828;28;19947;-51
2023/07/28 01:55:04;;;;;;;;;;;20.60;92.00;;;;;;4192666;28;20020;-50
2023/07/28 01:57:51;;;;;;;;;;;20.60;92.00;;;;;;4166183;28;20033;-50
2023/07/28 02:00:33;;;;;;;;;;;20.60;92.00;;;;;;4179875;28;19935;-52
2023/07/28 02:03:14;;;;;;;;;;;20.60;92.40;;;;;;4163548;28;19931;-52
2023/07/28 02:05:54;;;;;;;;;;;20.60;92.00;;;;;;4162310;28;19936;-52
2023/07/28 02:08:35;;;;;;;;;;;20.60;92.00;;;;;;4159316;28;20392;-47
2023/07/28 02:11:16;;;;;;;;;;;20.60;92.00;;;;;;4167071;28;19937;-50
2023/07/28 02:13:58;;;;;;;;;;;20.60;92.00;;;;;;4172050;28;19990;-51
2023/07/28 02:16:40;;;;;;;;;;;20.60;92.00;;;;;;4158312;28;19936;-51
2023/07/28 02:19:20;;;;;;;;;;;20.60;92.00;;;;;;4176000;28;20087;-51
2023/07/28 02:22:01;;;;;;;;;;;20.60;92.00;;;;;;4174898;28;20301;-51
2023/07/28 02:24:42;;;;;;;;;;;20.60;92.00;;;;;;4192538;28;19947;-50
2023/07/28 02:27:23;;;;;;;;;;;20.60;92.00;;;;;;4178243;28;20394;-50
2023/07/28 02:30:05;;;;;;;;;;;20.60;92.00;;;;;;4176043;28;20031;-46
2023/07/28 02:32:47;;;;;;;;;;;20.60;92.00;;;;;;4154637;28;19932;-49
2023/07/28 02:35:28;;;;;;;;;;;20.60;92.00;;;;;;4158137;28;19936;-47
2023/07/28 02:38:09;;;;;;;;;;;20.60;92.00;;;;;;4159992;28;19971;-50
2023/07/28 02:40:49;;;;;;;;;;;20.60;92.00;;;;;;4165262;28;19936;-49
2023/07/28 02:43:30;;;;;;;;;;;20.60;92.00;;;;;;4174563;28;19931;-51
2023/07/28 02:46:11;;;;;;;;;;;20.60;92.00;;;;;;4161926;28;19950;-49
2023/07/28 02:48:53;;;;;;;;;;;20.60;92.00;;;;;;4175705;28;19932;-49
2023/07/28 02:51:34;;;;;;;;;;;20.60;92.00;;;;;;4175689;28;19971;-49
2023/07/28 02:54:15;;;;;;;;;;;20.60;92.40;;;;;;4192667;28;19931;-50
2023/07/28 02:56:55;;;;;;;;;;;20.60;92.00;;;;;;4146787;28;19935;-47
2023/07/28 02:59:37;;;;;;;;;;;20.60;92.00;;;;;;4159512;28;19936;-45
2023/07/28 03:02:17;;;;;;;;;;;20.60;92.00;;;;;;4163831;28;19932;-50
2023/07/28 03:05:00;;;;;;;;;;;20.60;92.00;;;;;;4156218;28;20031;-49
2023/07/28 03:08:08;;;;;;;;;;;20.60;92.00;;;;;;4154557;28;19983;-52
2023/07/28 03:10:49;;;;;;;;;;;20.60;92.00;;;;;;4162933;28;19936;-53
2023/07/28 03:13:29;;;;;;;;;;;20.60;92.00;;;;;;4171120;28;19944;-52
2023/07/28 03:16:10;;;;;;;;;;;20.60;92.40;;;;;;4172250;28;19936;-51
2023/07/28 03:18:51;;;;;;;;;;;20.60;92.00;;;;;;4172002;28;19932;-49
2023/07/28 03:21:33;;;;;;;;;;;20.60;92.00;;;;;;4156933;28;20390;-52
2023/07/28 03:24:16;;;;;;;;;;;20.60;92.10;;;;;;4170566;28;20411;-50
2023/07/28 03:26:57;;;;;;;;;;;20.60;92.10;;;;;;4156790;28;20026;-50
2023/07/28 03:29:38;;;;;;;;;;;20.60;92.00;;;;;;4159454;28;20081;-48
2023/07/28 03:32:19;;;;;;;;;;;20.60;92.00;;;;;;4155783;28;19979;-50
2023/07/28 03:35:00;;;;;;;;;;;20.60;92.10;;;;;;4144342;28;19932;-51
2023/07/28 03:37:44;;;;;;;;;;;20.60;92.10;;;;;;4144734;28;20390;-49
2023/07/28 03:40:25;;;;;;;;;;;20.60;92.10;;;;;;4161787;28;19971;-47
2023/07/28 03:43:08;;;;;;;;;;;20.60;92.10;;;;;;4157107;28;19976;-46
2023/07/28 03:45:49;;;;;;;;;;;20.60;92.10;;;;;;4160595;28;20445;-48
2023/07/28 03:48:29;;;;;;;;;;;20.60;92.20;;;;;;4172338;28;19931;-47
2023/07/28 03:51:10;;;;;;;;;;;20.60;92.10;;;;;;4170081;28;20063;-46
2023/07/28 03:53:52;;;;;;;;;;;20.60;92.10;;;;;;4175706;28;20058;-49
2023/07/28 03:56:33;;;;;;;;;;;20.60;92.10;;;;;;4183253;28;19936;-48
2023/07/28 03:59:14;;;;;;;;;;;20.60;92.10;;;;;;4172458;28;20267;-46
2023/07/28 04:01:55;;;;;;;;;;;20.60;92.10;;;;;;4138470;28;20072;-47
2023/07/28 04:04:36;;;;;;;;;;;20.60;92.10;;;;;;4144940;28;19933;-48
2023/07/28 04:07:17;;;;;;;;;;;20.60;92.10;;;;;;4188243;28;20062;-51
2023/07/28 04:09:59;;;;;;;;;;;20.60;92.10;;;;;;4187173;28;20024;-46
2023/07/28 04:12:40;;;;;;;;;;;20.60;92.50;;;;;;4169246;28;20351;-48
2023/07/28 04:15:20;;;;;;;;;;;20.60;92.10;;;;;;4155059;28;20010;-50
2023/07/28 04:18:01;;;;;;;;;;;20.60;92.10;;;;;;4172481;28;19935;-50
2023/07/28 04:20:42;;;;;;;;;;;20.60;92.50;;;;;;4167978;28;19932;-47
2023/07/28 04:23:22;;;;;;;;;;;20.60;92.10;;;;;;4170503;28;19935;-51
2023/07/28 04:26:04;;;;;;;;;;;20.60;92.10;;;;;;4175955;28;19935;-52
2023/07/28 04:28:45;;;;;;;;;;;20.60;92.20;;;;;;4164186;28;19931;-53
2023/07/28 04:31:26;;;;;;;;;;;20.60;92.20;;;;;;4174606;28;19936;-51
2023/07/28 04:34:11;;;;;;;;;;;20.60;92.20;;;;;;4155808;28;20363;-49
2023/07/28 04:37:19;;;;;;;;;;;20.60;92.60;;;;;;4158730;28;20315;-51
2023/07/28 04:40:09;;;;;;;;;;;20.60;92.20;;;;;;4172964;28;19974;-51
2023/07/28 04:42:53;;;;;;;;;;;20.60;92.20;;;;;;4162262;28;19930;-47
2023/07/28 04:45:34;;;;;;;;;;;20.60;92.20;;;;;;4188258;28;19936;-51
2023/07/28 04:48:21;;;;;;;;;;;20.60;92.20;;;;;;4176009;28;19932;-50
2023/07/28 04:51:02;;;;;;;;;;;20.60;92.20;;;;;;4165862;28;20423;-47
2023/07/28 04:54:14;;;;;;;;;;;20.60;92.20;;;;;;4152371;28;19979;-50
2023/07/28 04:56:56;;;;;;;;;;;20.60;92.20;;;;;;4155719;28;20054;-48
2023/07/28 04:59:44;;;;;;;;;;;20.60;92.20;;;;;;4150890;28;20297;-48
2023/07/28 05:02:25;;;;;;;;;;;20.60;92.70;;;;;;4142197;28;20391;-50
2023/07/28 05:05:06;;;;;;;;;;;20.60;92.40;;;;;;4142945;28;20391;-49
2023/07/28 05:07:47;;;;;;;;;;;20.60;92.30;;;;;;4154369;28;19936;-49
2023/07/28 05:10:29;;;;;;;;;;;20.60;92.30;;;;;;4147742;28;19932;-49
2023/07/28 05:13:10;;;;;;;;;;;20.60;92.40;;;;;;4147694;28;20291;-48
2023/07/28 05:15:54;;;;;;;;;;;20.60;92.40;;;;;;4175714;28;19931;-47
2023/07/28 05:18:54;;;;;;;;;;;20.60;92.30;;;;;;4181073;28;20043;-49
2023/07/28 05:21:56;;;;;;;;;;;20.70;92.50;;;;;;4169961;28;19958;-49
2023/07/28 05:24:57;;;;;;;;;;;20.70;92.50;;;;;;4162206;28;19940;-47
2023/07/28 05:27:41;;;;;;;;;;;20.70;92.50;;;;;;4155134;28;20063;-50
2023/07/28 05:30:22;;;;;;;;;;;20.70;92.50;;;;;;4157689;28;19931;-49
2023/07/28 05:33:08;;;;;;;;;;;20.70;92.50;;;;;;4170674;28;20070;-51
2023/07/28 05:36:03;;;;;;;;;;;20.70;92.50;;;;;;4156349;28;20017;-46
2023/07/28 05:38:45;;;;;;;;;;;20.70;92.50;;;;;;4158302;28;20383;-52
2023/07/28 05:41:26;;;;;;;;;;;20.70;92.90;;;;;;4158719;28;20079;-47
2023/07/28 05:44:08;;;;;;;;;;;20.70;92.50;;;;;;4159229;28;20391;-50
2023/07/28 05:46:48;;;;;;;;;;;20.70;92.50;;;;;;4169816;28;19932;-49
2023/07/28 05:49:31;;;;;;;;;;;20.70;92.50;;;;;;4176636;28;20379;-47
2023/07/28 05:52:12;;;;;;;;;;;20.70;92.60;;;;;;4169594;28;19936;-46
2023/07/28 05:54:54;;;;;;;;;;;20.70;92.50;;;;;;4154973;28;20276;-45
2023/07/28 05:57:35;;;;;;;;;;;20.60;92.50;;;;;;4142358;28;19990;-50
2023/07/28 06:00:19;;;;;;;;;;;20.70;92.60;;;;;;4169535;28;20059;-55
2023/07/28 06:03:01;;;;;;;;;;;20.70;92.60;;;;;;4168959;28;19943;-57
2023/07/28 06:06:03;;;;;;;;;;;20.70;92.60;;;;;;4186720;28;19935;-52
2023/07/28 06:08:44;;;;;;;;;;;20.70;92.60;;;;;;4158151;28;20476;-54
2023/07/28 06:11:26;;;;;;;;;;;20.70;93.00;;;;;;4152294;28;19936;-49
2023/07/28 06:14:06;;;;;;;;;;;20.70;92.60;;;;;;4158032;28;19944;-49
2023/07/28 06:16:49;;;;;;;;;;;20.70;92.50;;;;;;4154830;28;20292;-52
2023/07/28 06:19:30;;;;;;;;;;;20.70;92.50;;;;;;4157343;28;19943;-43
2023/07/28 06:22:12;;;;;;;;;;;20.70;92.50;;;;;;4156885;28;20008;-45
2023/07/28 06:24:56;;;;;;;;;;;20.70;92.50;;;;;;4148684;28;20364;-43
2023/07/28 06:27:38;;;;;;;;;;;20.70;92.50;;;;;;4127212;28;19936;-44
2023/07/28 06:30:19;;;;;;;;;;;20.70;92.50;;;;;;4130362;28;20407;-46
2023/07/28 06:32:59;;;;;;;;;;;20.70;92.50;;;;;;4164705;28;19932;-47
2023/07/28 06:35:40;;;;;;;;;;;20.70;92.50;;;;;;4171897;28;19931;-44
2023/07/28 06:38:22;;;;;;;;;;;20.70;92.50;;;;;;4163721;28;19932;-48
2023/07/28 06:41:03;;;;;;;;;;;20.70;92.50;;;;;;4161332;28;19940;-45
2023/07/28 06:43:44;;;;;;;;;;;20.70;92.60;;;;;;4161930;28;19970;-44
2023/07/28 06:46:25;;;;;;;;;;;20.70;92.70;;;;;;4158815;28;20365;-46
2023/07/28 06:49:06;;;;;;;;;;;20.70;92.80;;;;;;4173929;28;19932;-50
2023/07/28 06:51:46;;;;;;;;;;;20.80;92.80;;;;;;4167554;28;19936;-49
2023/07/28 06:54:29;;;;;;;;;;;20.80;92.80;;;;;;4166691;28;19936;-46
2023/07/28 06:57:09;;;;;;;;;;;20.80;92.70;;;;;;4173485;28;19983;-46
2023/07/28 06:59:51;;;;;;;;;;;20.80;92.70;;;;;;4145067;28;19936;-46
2023/07/28 07:02:32;;;;;;;;;;;20.80;92.70;;;;;;4146096;28;19932;-45
2023/07/28 07:05:12;;;;;;;;;;;20.80;92.80;;;;;;4156309;28;19935;-44
2023/07/28 07:07:54;;;;;;;;;;;20.80;92.80;;;;;;4151129;28;20019;-46
2023/07/28 07:10:37;;;;;;;;;;;20.80;92.80;;;;;;4160051;28;20082;-45
2023/07/28 07:13:17;;;;;;;;;;;20.80;92.80;;;;;;4169367;28;19936;-43
2023/07/28 07:15:58;;;;;;;;;;;20.90;92.80;;;;;;4183911;28;20386;-42
2023/07/28 07:18:39;;;;;;;;;;;20.90;92.80;;;;;;4161914;28;19936;-47
2023/07/28 07:21:20;;;;;;;;;;;21.00;92.80;;;;;;4170187;28;20150;-48
2023/07/28 07:24:01;;;;;;;;;;;21.00;93.20;;;;;;4155910;28;19936;-43
2023/07/28 07:26:43;;;;;;;;;;;21.10;92.70;;;;;;4156755;28;19978;-43
2023/07/28 07:29:24;;;;;;;;;;;21.10;92.60;;;;;;4156184;28;19937;-46
2023/07/28 07:32:05;;;;;;;;;;;21.20;92.50;;;;;;4164720;28;19932;-48
2023/07/28 07:34:46;;;;;;;;;;;21.30;92.40;;;;;;4156355;28;20375;-47
2023/07/28 07:37:27;;;;;;;;;;;21.30;92.30;;;;;;4156831;28;20020;-43
2023/07/28 07:40:08;;;;;;;;;;;21.30;92.40;;;;;;4156623;28;19932;-46
2023/07/28 07:42:51;;;;;;;;;;;21.40;92.30;;;;;;4170009;28;19940;-46
2023/07/28 07:45:32;;;;;;;;;;;21.40;92.20;;;;;;4172673;28;19935;-44
2023/07/28 07:48:12;;;;;;;;;;;21.40;92.10;;;;;;4169734;28;20459;-44
2023/07/28 07:50:53;;;;;;;;;;;21.40;92.00;;;;;;4172682;28;20106;-44
2023/07/28 07:53:34;;;;;;;;;;;21.40;92.00;;;;;;4169193;28;19936;-43
2023/07/28 07:56:16;;;;;;;;;;;21.40;91.90;;;;;;4157123;28;19936;-44
2023/07/28 07:59:01;;;;;;;;;;;21.40;92.20;;;;;;4170375;28;19935;-46
2023/07/28 08:01:42;;;;;;;;;;;21.50;91.80;;;;;;4170541;28;19936;-43
2023/07/28 08:04:23;;;;;;;;;;;21.40;91.80;;;;;;4155318;28;19932;-47
2023/07/28 08:07:06;;;;;;;;;;;21.50;91.80;;;;;;4154167;28;19932;-48
2023/07/28 08:09:47;;;;;;;;;;;21.40;91.70;;;;;;4170425;28;20014;-46
2023/07/28 08:12:28;;;;;;;;;;;21.40;91.70;;;;;;4158625;28;19935;-45
2023/07/28 08:15:11;;;;;;;;;;;21.40;91.70;;;;;;4157954;28;20136;-45
2023/07/28 08:17:52;;;;;;;;;;;21.40;91.80;;;;;;4169511;28;20280;-46
2023/07/28 08:20:32;;;;;;;;;;;21.40;92.20;;;;;;4172324;28;19932;-45
2023/07/28 08:23:13;;;;;;;;;;;21.40;91.80;;;;;;4154154;28;19948;-46
2023/07/28 08:25:55;;;;;;;;;;;21.50;91.90;;;;;;4170516;28;19971;-43
2023/07/28 08:28:40;;;;;;;;;;;21.50;92.00;;;;;;4154838;28;20070;-41
2023/07/28 08:31:22;;;;;;;;;;;21.50;92.00;;;;;;4154366;28;19968;-42
2023/07/28 08:34:03;;;;;;;;;;;21.50;91.90;;;;;;4155393;28;19936;-42
2023/07/28 08:36:44;;;;;;;;;;;21.50;91.90;;;;;;4167616;28;19932;-44
2023/07/28 08:39:25;;;;;;;;;;;21.50;91.80;;;;;;4177294;28;19932;-42
2023/07/28 08:42:06;;;;;;;;;;;21.50;91.80;;;;;;4176481;28;19939;-46
2023/07/28 08:44:47;;;;;;;;;;;21.60;91.80;;;;;;4171222;28;19936;-41
2023/07/28 08:47:30;;;;;;;;;;;21.60;91.80;;;;;;4155279;28;20015;-46
2023/07/28 08:50:11;;;;;;;;;;;21.60;91.70;;;;;;4172181;28;19935;-42
2023/07/28 08:52:52;;;;;;;;;;;21.60;91.70;;;;;;4171656;28;19932;-41
2023/07/28 08:55:32;;;;;;;;;;;21.60;91.60;;;;;;4167668;28;19935;-41
2023/07/28 08:58:16;;;;;;;;;;;21.60;91.60;;;;;;4141618;28;19932;-42
2023/07/28 09:01:01;;;;;;;;;;;21.70;91.60;;;;;;4132576;28;19936;-41
2023/07/28 09:03:44;;;;;;;;;;;21.70;91.50;;;;;;4145507;28;20599;-44
2023/07/28 09:06:29;;;;;;;;;;;21.70;91.50;;;;;;4154637;28;20053;-42
2023/07/28 09:09:10;;;;;;;;;;;21.80;91.50;;;;;;4153811;28;19932;-42
2023/07/28 09:11:51;;;;;;;;;;;21.80;91.80;;;;;;4155452;28;20294;-46
2023/07/28 09:14:33;;;;;;;;;;;21.80;91.30;;;;;;4167720;28;19931;-45
2023/07/28 09:17:17;;;;;;;;;;;21.80;91.30;;;;;;4187507;28;20013;-42
2023/07/28 09:20:00;;;;;;;;;;;21.90;91.20;;;;;;4187689;28;19935;-44
2023/07/28 09:22:40;;;;;;;;;;;21.80;91.20;;;;;;4169303;28;19935;-46
2023/07/28 09:25:21;;;;;;;;;;;21.90;91.20;;;;;;4160489;28;20050;-44
2023/07/28 09:28:02;;;;;;;;;;;21.80;91.10;;;;;;4168910;28;19935;-41
2023/07/28 09:30:47;;;;;;;;;;;21.90;91.10;;;;;;4154722;28;20083;-42
2023/07/28 09:33:31;;;;;;;;;;;21.90;91.10;;;;;;4153351;28;19978;-44
2023/07/28 09:36:15;;;;;;;;;;;21.80;91.10;;;;;;4160666;28;19948;-43
2023/07/28 09:38:57;;;;;;;;;;;21.90;91.10;;;;;;4169939;28;19935;-44
2023/07/28 09:41:39;;;;;;;;;;;21.90;91.10;;;;;;4149127;28;19936;-45
2023/07/28 09:44:20;;;;;;;;;;;21.90;91.00;;;;;;4185603;28;20295;-44
2023/07/28 09:47:01;;;;;;;;;;;21.90;90.90;;;;;;4150969;28;20004;-46
2023/07/28 09:49:48;;;;;;;;;;;22.00;90.90;;;;;;4170489;28;19936;-48
2023/07/28 09:52:35;;;;;;;;;;;22.00;90.80;;;;;;4163218;28;20025;-43
2023/07/28 09:55:16;;;;;;;;;;;22.10;90.80;;;;;;4163072;28;20490;-42
2023/07/28 09:57:59;;;;;;;;;;;22.10;90.80;;;;;;4165078;28;20022;-43
2023/07/28 10:00:39;;;;;;;;;;;22.20;90.80;;;;;;4186491;28;20063;-43
2023/07/28 10:03:20;;;;;;;;;;;22.20;90.70;;;;;;4176110;28;19994;-49
2023/07/28 10:06:01;;;;;;;;;;;22.30;90.60;;;;;;4153636;28;19932;-48
2023/07/28 10:08:45;;;;;;;;;;;22.30;90.50;;;;;;4148418;28;19999;-48
2023/07/28 10:11:26;;;;;;;;;;;22.30;90.40;;;;;;4190095;28;19935;-46
2023/07/28 10:14:08;;;;;;;;;;;22.40;90.40;;;;;;4189928;28;20447;-46
2023/07/28 10:16:49;;;;;;;;;;;22.40;90.20;;;;;;4184746;28;20386;-45
2023/07/28 10:19:34;;;;;;;;;;;22.40;90.20;;;;;;4173408;28;19936;-44
2023/07/28 10:22:15;;;;;;;;;;;22.40;90.10;;;;;;4154749;28;19932;-50
2023/07/28 10:25:01;;;;;;;;;;;22.40;90.10;;;;;;4183812;28;19995;-47
2023/07/28 10:27:46;;;;;;;;;;;22.50;90.50;;;;;;4173338;28;20387;-46
2023/07/28 10:30:28;;;;;;;;;;;22.40;90.00;;;;;;4173110;28;19962;-46
2023/07/28 10:33:26;;;;;;;;;;;22.50;90.00;;;;;;4166207;28;20414;-49
2023/07/28 10:36:13;;;;;;;;;;;22.50;90.00;;;;;;4177950;28;20303;-45
2023/07/28 10:39:00;;;;;;;;;;;22.50;90.40;;;;;;4173171;28;20287;-44
2023/07/28 10:42:02;;;;;;;;;;;22.50;90.00;;;;;;4187636;28;20009;-45
2023/07/28 10:44:42;;;;;;;;;;;22.50;89.90;;;;;;4188519;28;19932;-45
2023/07/28 10:47:25;;;;;;;;;;;22.50;89.90;;;;;;4186350;28;19966;-43
2023/07/28 10:50:09;;;;;;;;;;;22.50;89.90;;;;;;4189323;28;19932;-48
2023/07/28 10:52:50;;;;;;;;;;;22.60;90.30;;;;;;4188444;28;20001;-43
2023/07/28 10:55:33;;;;;;;;;;;22.60;89.80;;;;;;4188562;28;19986;-45
2023/07/28 10:58:15;;;;;;;;;;;22.60;89.70;;;;;;4146722;28;19932;-45
2023/07/28 11:00:56;;;;;;;;;;;22.60;89.60;;;;;;4145033;28;19936;-46
2023/07/28 11:03:41;;;;;;;;;;;22.60;89.60;;;;;;4152389;28;19936;-45
2023/07/28 11:06:21;;;;;;;;;;;22.70;89.80;;;;;;4158532;28;20050;-44
2023/07/28 11:09:06;;;;;;;;;;;22.70;90.30;;;;;;4171431;28;19973;-44
2023/07/28 11:11:47;;;;;;;;;;;22.80;89.70;;;;;;4162654;28;19935;-47
2023/07/28 11:14:30;;;;;;;;;;;22.80;89.50;;;;;;4160225;28;20056;-46
2023/07/28 11:17:11;;;;;;;;;;;22.80;89.20;;;;;;4156292;28;19951;-47
2023/07/28 11:19:52;;;;;;;;;;;22.90;89.20;;;;;;4190147;28;19975;-47
2023/07/28 11:22:32;;;;;;;;;;;22.90;88.90;;;;;;4187874;28;19962;-47
2023/07/28 11:25:14;;;;;;;;;;;22.90;88.70;;;;;;4175742;28;19958;-48
2023/07/28 11:27:56;;;;;;;;;;;23.00;88.70;;;;;;4171378;28;19931;-48
2023/07/28 11:30:38;;;;;;;;;;;23.00;88.50;;;;;;4187569;28;19931;-45
2023/07/28 11:33:20;;;;;;;;;;;23.10;88.40;;;;;;4187319;28;20464;-47
2023/07/28 11:36:00;;;;;;;;;;;23.10;88.20;;;;;;4178099;28;19967;-42
2023/07/28 11:38:41;;;;;;;;;;;23.10;88.90;;;;;;4176132;28;19932;-44
2023/07/28 11:41:22;;;;;;;;;;;23.10;88.00;;;;;;4186866;28;19958;-54
2023/07/28 11:44:03;;;;;;;;;;;23.10;87.80;;;;;;4189011;28;20025;-50
2023/07/28 11:46:47;;;;;;;;;;;23.20;87.80;;;;;;4161336;28;20006;-51
2023/07/28 11:49:28;;;;;;;;;;;23.20;87.70;;;;;;4159714;28;19994;-53
2023/07/28 11:52:09;;;;;;;;;;;23.20;87.70;;;;;;4172008;28;19936;-49
2023/07/28 11:54:49;;;;;;;;;;;23.20;87.70;;;;;;4171045;28;20069;-52
2023/07/28 11:57:32;;;;;;;;;;;23.20;87.70;;;;;;4156381;28;20327;-55
2023/07/28 12:00:16;;;;;;;;;;;23.30;87.50;;;;;;4156029;28;19932;-51
2023/07/28 12:03:10;;;;;;;;;;;23.30;87.30;;;;;;4156479;28;20450;-54
2023/07/28 12:06:09;;;;;;;;;;;23.30;87.70;;;;;;4143960;28;20284;-52
2023/07/28 12:08:53;;;;;;;;;;;23.30;87.20;;;;;;4155855;28;19967;-49
2023/07/28 12:11:48;;;;;;;;;;;23.40;87.40;;;;;;4156221;28;20352;-55
2023/07/28 12:14:33;;;;;;;;;;;23.40;86.90;;;;;;4172069;28;19932;-54
2023/07/28 12:17:18;;;;;;;;;;;23.40;86.80;;;;;;4156103;28;20051;-54
2023/07/28 12:20:10;;;;;;;;;;;23.40;86.70;;;;;;4155272;28;20703;-54
2023/07/28 12:22:50;;;;;;;;;;;23.40;87.50;;;;;;4155945;28;19936;-53
2023/07/28 12:25:53;;;;;;;;;;;23.40;86.50;;;;;;4161193;28;20421;-53
2023/07/28 12:28:34;;;;;;;;;;;23.40;86.30;;;;;;4170650;28;19932;-55
2023/07/28 12:31:24;;;;;;;;;;;23.40;86.20;;;;;;4158275;28;19971;-54
2023/07/28 12:34:05;;;;;;;;;;;23.40;86.30;;;;;;4170801;28;19978;-51
2023/07/28 12:36:46;;;;;;;;;;;23.50;87.20;;;;;;4157876;28;19951;-53
2023/07/28 12:39:31;;;;;;;;;;;23.50;86.30;;;;;;4168373;28;19978;-49
2023/07/28 12:42:15;;;;;;;;;;;23.50;86.30;;;;;;4170137;28;20083;-56
2023/07/28 12:45:00;;;;;;;;;;;23.50;86.20;;;;;;4170911;28;20011;-52
2023/07/28 12:47:44;;;;;;;;;;;23.50;86.20;;;;;;4169316;28;20402;-55
2023/07/28 12:50:25;;;;;;;;;;;23.50;86.30;;;;;;4169766;28;19936;-53
2023/07/28 12:53:06;;;;;;;;;;;23.50;86.20;;;;;;4171780;28;19935;-54
2023/07/28 12:55:55;;;;;;;;;;;23.50;86.10;;;;;;4171096;28;19936;-52
2023/07/28 12:58:39;;;;;;;;;;;23.50;86.20;;;;;;4157523;28;19932;-51
2023/07/28 13:01:23;;;;;;;;;;;23.50;86.20;;;;;;4187916;28;19932;-53
2023/07/28 13:04:04;;;;;;;;;;;23.50;86.10;;;;;;4187535;28;20428;-55
2023/07/28 13:06:45;;;;;;;;;;;23.50;86.20;;;;;;4138980;28;19937;-53
2023/07/28 13:09:28;;;;;;;;;;;23.50;86.00;;;;;;4163079;28;20268;-52
2023/07/28 13:12:11;;;;;;;;;;;23.50;86.20;;;;;;4168503;28;20287;-47
2023/07/28 13:14:55;;;;;;;;;;;23.50;86.20;;;;;;4181528;28;19932;-49
2023/07/28 13:17:37;;;;;;;;;;;23.60;86.20;;;;;;4154223;28;20403;-43
2023/07/28 13:20:18;;;;;;;;;;;23.60;86.30;;;;;;4170549;28;19935;-44
2023/07/28 13:22:59;;;;;;;;;;;23.60;86.00;;;;;;4174987;28;19935;-45
2023/07/28 13:25:41;;;;;;;;;;;23.70;86.10;;;;;;4174785;28;19931;-48
2023/07/28 13:28:23;;;;;;;;;;;23.70;85.90;;;;;;4169803;28;20413;-42
2023/07/28 13:31:05;;;;;;;;;;;23.70;85.60;;;;;;4170595;28;20022;-46
2023/07/28 13:33:46;;;;;;;;;;;23.70;85.30;;;;;;4170432;28;20402;-42
2023/07/28 13:36:27;;;;;;;;;;;23.70;85.20;;;;;;4154545;28;20070;-43
2023/07/28 13:39:07;;;;;;;;;;;23.70;85.20;;;;;;4154450;28;19999;-44
2023/07/28 13:41:49;;;;;;;;;;;23.70;85.20;;;;;;4154204;28;20476;-44
2023/07/28 13:44:30;;;;;;;;;;;23.70;86.00;;;;;;4155134;28;19951;-42
2023/07/28 13:47:12;;;;;;;;;;;23.70;84.90;;;;;;4171474;28;20407;-52
2023/07/28 13:49:52;;;;;;;;;;;23.70;84.70;;;;;;4186403;28;19947;-51
2023/07/28 13:52:33;;;;;;;;;;;23.80;85.50;;;;;;4186131;28;20662;-54
2023/07/28 13:55:14;;;;;;;;;;;23.80;84.60;;;;;;4185034;28;19931;-53
2023/07/28 13:57:56;;;;;;;;;;;23.80;84.60;;;;;;4153820;28;19936;-54
2023/07/28 14:00:37;;;;;;;;;;;23.80;84.40;;;;;;4170205;28;19936;-49
2023/07/28 14:03:17;;;;;;;;;;;23.80;84.30;;;;;;4153940;28;19936;-52
2023/07/28 14:05:59;;;;;;;;;;;23.80;84.20;;;;;;4148405;28;19967;-52
2023/07/28 14:08:39;;;;;;;;;;;23.90;84.20;;;;;;4171848;28;20268;-50
2023/07/28 14:11:20;;;;;;;;;;;23.90;84.20;;;;;;4162614;28;19981;-42
2023/07/28 14:14:02;;;;;;;;;;;23.90;84.10;;;;;;4170239;28;19936;-45
2023/07/28 14:16:43;;;;;;;;;;;23.90;84.10;;;;;;4168030;28;19936;-52
2023/07/28 14:19:24;;;;;;;;;;;23.90;85.00;;;;;;4153821;28;19932;-51
2023/07/28 14:22:05;;;;;;;;;;;23.90;84.10;;;;;;4153029;28;19936;-42
2023/07/28 14:24:46;;;;;;;;;;;23.90;84.00;;;;;;4163719;28;20014;-45
2023/07/28 14:27:26;;;;;;;;;;;23.90;84.00;;;;;;4165100;28;19931;-44
2023/07/28 14:30:09;;;;;;;;;;;23.90;84.00;;;;;;4158059;28;20390;-44
2023/07/28 14:32:50;;;;;;;;;;;23.90;84.00;;;;;;4170019;28;19932;-43
2023/07/28 14:35:30;;;;;;;;;;;23.90;84.80;;;;;;4153226;28;19990;-48
2023/07/28 14:38:11;;;;;;;;;;;23.90;84.00;;;;;;4153767;28;20016;-55
2023/07/28 14:40:52;;;;;;;;;;;23.90;84.00;;;;;;4153564;28;20315;-54
2023/07/28 14:43:33;;;;;;;;;;;23.90;84.00;;;;;;4154180;28;19932;-45
2023/07/28 14:46:15;;;;;;;;;;;23.90;83.90;;;;;;4168620;28;19994;-43
2023/07/28 14:48:57;;;;;;;;;;;23.90;84.00;;;;;;4165507;28;19936;-46
2023/07/28 14:51:37;;;;;;;;;;;23.90;83.90;;;;;;4164178;28;19960;-51
2023/07/28 14:54:19;;;;;;;;;;;23.90;83.90;;;;;;4168904;28;19931;-49
2023/07/28 14:56:59;;;;;;;;;;;23.90;84.00;;;;;;4159887;28;20297;-46
2023/07/28 14:59:39;;;;;;;;;;;23.90;84.10;;;;;;4154814;28;19932;-42
2023/07/28 15:02:22;;;;;;;;;;;23.90;84.90;;;;;;4188771;28;20073;-45
2023/07/28 15:05:02;;;;;;;;;;;23.90;84.00;;;;;;4157050;28;19935;-44
2023/07/28 15:07:43;;;;;;;;;;;23.90;83.90;;;;;;4155915;28;19979;-44
2023/07/28 15:10:24;;;;;;;;;;;23.90;83.90;;;;;;4170508;28;19932;-44
2023/07/28 15:13:05;;;;;;;;;;;23.90;83.90;;;;;;4170928;28;20303;-43
2023/07/28 15:15:46;;;;;;;;;;;24.00;84.00;;;;;;4169426;28;20409;-44
2023/07/28 15:18:29;;;;;;;;;;;24.00;84.00;;;;;;4171012;28;19966;-42
2023/07/28 15:21:11;;;;;;;;;;;24.00;83.90;;;;;;4155599;28;19990;-43
2023/07/28 15:23:54;;;;;;;;;;;24.00;83.90;;;;;;4163947;28;19936;-44
2023/07/28 15:26:35;;;;;;;;;;;24.00;83.90;;;;;;4172042;28;19936;-44
2023/07/28 15:29:16;;;;;;;;;;;24.00;83.90;;;;;;4171975;28;20637;-43
2023/07/28 15:31:57;;;;;;;;;;;24.00;83.70;;;;;;4172543;28;19931;-42
2023/07/28 15:34:39;;;;;;;;;;;24.00;84.60;;;;;;4157989;28;19944;-45
2023/07/28 15:37:20;;;;;;;;;;;24.00;83.90;;;;;;4189368;28;19932;-43
2023/07/28 15:40:01;;;;;;;;;;;24.00;83.90;;;;;;4188227;28;19935;-49
2023/07/28 15:42:41;;;;;;;;;;;24.00;83.80;;;;;;4140308;28;20026;-50
2023/07/28 15:45:25;;;;;;;;;;;24.00;83.80;;;;;;4176121;28;19947;-52